sensor_id;sensor_type;location;lat;lon;timestamp;P1;durP1;ratioP1;P2;durP2;ratioP2
34134;SDS011;20410;55.578;12.968;2023-04-30T00:00:28;11.53;;;4.47;;
34134;SDS011;20410;55.578;12.968;2023-04-30T00:02:53;17.23;;;4.90;;
34134;SDS011;20410;55.578;12.968;2023-04-30T00:05:19;10.77;;;4.47;;
34134;SDS011;20410;55.578;12.968;2023-04-30T00:07:45;17.17;;;4.73;;
34134;SDS011;20410;55.578;12.968;2023-04-30T00:10:10;13.93;;;4.70;;
34134;SDS011;20410;55.578;12.968;2023-04-30T00:12:36;10.57;;;4.50;;
34134;SDS011;20410;55.578;12.968;2023-04-30T00:15:02;15.10;;;5.07;;
34134;SDS011;20410;55.578;12.968;2023-04-30T00:17:28;10.73;;;4.67;;
34134;SDS011;20410;55.578;12.968;2023-04-30T00:19:54;16.03;;;5.30;;
34134;SDS011;20410;55.578;12.968;2023-04-30T00:22:19;13.00;;;4.73;;
34134;SDS011;20410;55.578;12.968;2023-04-30T00:24:45;16.83;;;5.03;;
34134;SDS011;20410;55.578;12.968;2023-04-30T00:27:11;12.57;;;4.47;;
34134;SDS011;20410;55.578;12.968;2023-04-30T00:29:36;13.53;;;4.57;;
34134;SDS011;20410;55.578;12.968;2023-04-30T00:32:02;11.07;;;4.87;;
34134;SDS011;20410;55.578;12.968;2023-04-30T00:34:28;16.23;;;4.83;;
34134;SDS011;20410;55.578;12.968;2023-04-30T00:36:54;11.17;;;4.33;;
34134;SDS011;20410;55.578;12.968;2023-04-30T00:39:19;11.90;;;5.13;;
34134;SDS011;20410;55.578;12.968;2023-04-30T00:41:45;13.20;;;4.27;;
34134;SDS011;20410;55.578;12.968;2023-04-30T00:44:11;12.13;;;4.53;;
34134;SDS011;20410;55.578;12.968;2023-04-30T00:46:36;11.00;;;4.10;;
34134;SDS011;20410;55.578;12.968;2023-04-30T00:49:02;13.73;;;4.83;;
34134;SDS011;20410;55.578;12.968;2023-04-30T00:51:30;14.40;;;4.60;;
34134;SDS011;20410;55.578;12.968;2023-04-30T00:53:57;11.20;;;4.57;;
34134;SDS011;20410;55.578;12.968;2023-04-30T00:56:24;12.13;;;4.67;;
34134;SDS011;20410;55.578;12.968;2023-04-30T00:58:50;18.40;;;5.90;;
34134;SDS011;20410;55.578;12.968;2023-04-30T01:01:20;9.70;;;4.33;;
34134;SDS011;20410;55.578;12.968;2023-04-30T01:03:48;16.33;;;5.73;;
34134;SDS011;20410;55.578;12.968;2023-04-30T01:06:14;13.03;;;5.00;;
34134;SDS011;20410;55.578;12.968;2023-04-30T01:08:40;12.40;;;4.73;;
34134;SDS011;20410;55.578;12.968;2023-04-30T01:16:40;11.27;;;4.40;;
34134;SDS011;20410;55.578;12.968;2023-04-30T01:19:19;13.90;;;4.80;;
34134;SDS011;20410;55.578;12.968;2023-04-30T01:22:02;14.13;;;5.70;;
34134;SDS011;20410;55.578;12.968;2023-04-30T01:27:37;15.63;;;5.00;;
34134;SDS011;20410;55.578;12.968;2023-04-30T01:30:14;18.50;;;4.80;;
34134;SDS011;20410;55.578;12.968;2023-04-30T01:32:42;15.17;;;5.07;;
34134;SDS011;20410;55.578;12.968;2023-04-30T01:35:08;14.63;;;4.90;;
34134;SDS011;20410;55.578;12.968;2023-04-30T01:37:38;12.37;;;5.10;;
34134;SDS011;20410;55.578;12.968;2023-04-30T01:41:14;11.07;;;5.17;;
34134;SDS011;20410;55.578;12.968;2023-04-30T01:46:30;13.57;;;5.10;;
34134;SDS011;20410;55.578;12.968;2023-04-30T01:51:44;12.97;;;4.97;;
34134;SDS011;20410;55.578;12.968;2023-04-30T01:54:16;13.90;;;5.40;;
34134;SDS011;20410;55.578;12.968;2023-04-30T01:57:02;13.60;;;5.33;;
34134;SDS011;20410;55.578;12.968;2023-04-30T01:59:33;14.37;;;5.23;;
34134;SDS011;20410;55.578;12.968;2023-04-30T02:02:02;12.03;;;5.57;;
34134;SDS011;20410;55.578;12.968;2023-04-30T02:04:28;12.57;;;5.63;;
34134;SDS011;20410;55.578;12.968;2023-04-30T02:06:53;9.20;;;4.47;;
34134;SDS011;20410;55.578;12.968;2023-04-30T02:09:19;14.63;;;5.90;;
34134;SDS011;20410;55.578;12.968;2023-04-30T02:11:48;16.33;;;5.33;;
34134;SDS011;20410;55.578;12.968;2023-04-30T02:14:13;16.20;;;5.10;;
34134;SDS011;20410;55.578;12.968;2023-04-30T02:16:39;10.27;;;4.83;;
34134;SDS011;20410;55.578;12.968;2023-04-30T02:19:04;12.70;;;5.37;;
34134;SDS011;20410;55.578;12.968;2023-04-30T02:21:30;15.37;;;5.40;;
34134;SDS011;20410;55.578;12.968;2023-04-30T02:23:55;13.23;;;5.13;;
34134;SDS011;20410;55.578;12.968;2023-04-30T02:26:21;13.03;;;5.13;;
34134;SDS011;20410;55.578;12.968;2023-04-30T02:28:47;14.03;;;5.40;;
34134;SDS011;20410;55.578;12.968;2023-04-30T02:31:12;16.33;;;5.37;;
34134;SDS011;20410;55.578;12.968;2023-04-30T02:33:38;13.40;;;5.40;;
34134;SDS011;20410;55.578;12.968;2023-04-30T02:36:03;15.00;;;5.37;;
34134;SDS011;20410;55.578;12.968;2023-04-30T02:38:29;16.13;;;5.23;;
34134;SDS011;20410;55.578;12.968;2023-04-30T02:40:55;11.97;;;5.17;;
34134;SDS011;20410;55.578;12.968;2023-04-30T02:43:20;14.47;;;5.10;;
34134;SDS011;20410;55.578;12.968;2023-04-30T02:45:46;10.97;;;5.03;;
34134;SDS011;20410;55.578;12.968;2023-04-30T02:48:12;14.43;;;4.60;;
34134;SDS011;20410;55.578;12.968;2023-04-30T02:50:38;14.03;;;4.90;;
34134;SDS011;20410;55.578;12.968;2023-04-30T02:53:03;12.80;;;4.50;;
34134;SDS011;20410;55.578;12.968;2023-04-30T02:55:29;12.50;;;5.03;;
34134;SDS011;20410;55.578;12.968;2023-04-30T02:57:55;12.83;;;4.97;;
34134;SDS011;20410;55.578;12.968;2023-04-30T03:00:21;16.77;;;5.27;;
34134;SDS011;20410;55.578;12.968;2023-04-30T03:02:47;16.23;;;4.40;;
34134;SDS011;20410;55.578;12.968;2023-04-30T03:05:13;15.50;;;5.00;;
34134;SDS011;20410;55.578;12.968;2023-04-30T03:07:39;14.20;;;4.83;;
34134;SDS011;20410;55.578;12.968;2023-04-30T03:10:05;14.97;;;4.83;;
34134;SDS011;20410;55.578;12.968;2023-04-30T03:12:31;13.50;;;5.13;;
34134;SDS011;20410;55.578;12.968;2023-04-30T03:14:57;14.33;;;5.10;;
34134;SDS011;20410;55.578;12.968;2023-04-30T03:17:23;11.07;;;4.53;;
34134;SDS011;20410;55.578;12.968;2023-04-30T03:19:49;14.83;;;5.30;;
34134;SDS011;20410;55.578;12.968;2023-04-30T03:22:15;13.60;;;4.70;;
34134;SDS011;20410;55.578;12.968;2023-04-30T03:24:43;12.90;;;4.87;;
34134;SDS011;20410;55.578;12.968;2023-04-30T03:27:09;15.77;;;5.07;;
34134;SDS011;20410;55.578;12.968;2023-04-30T03:29:34;12.60;;;3.63;;
34134;SDS011;20410;55.578;12.968;2023-04-30T03:32:00;12.80;;;4.70;;
34134;SDS011;20410;55.578;12.968;2023-04-30T03:34:26;14.63;;;4.57;;
34134;SDS011;20410;55.578;12.968;2023-04-30T03:36:51;10.03;;;4.23;;
34134;SDS011;20410;55.578;12.968;2023-04-30T03:39:17;12.27;;;4.30;;
34134;SDS011;20410;55.578;12.968;2023-04-30T03:41:42;11.03;;;4.23;;
34134;SDS011;20410;55.578;12.968;2023-04-30T03:44:08;9.63;;;3.30;;
34134;SDS011;20410;55.578;12.968;2023-04-30T03:46:39;9.10;;;3.50;;
34134;SDS011;20410;55.578;12.968;2023-04-30T03:49:08;9.17;;;3.43;;
34134;SDS011;20410;55.578;12.968;2023-04-30T03:51:33;14.17;;;4.43;;
34134;SDS011;20410;55.578;12.968;2023-04-30T03:54:04;13.53;;;4.60;;
34134;SDS011;20410;55.578;12.968;2023-04-30T03:56:30;15.23;;;4.40;;
34134;SDS011;20410;55.578;12.968;2023-04-30T03:58:57;11.07;;;4.33;;
34134;SDS011;20410;55.578;12.968;2023-04-30T04:01:23;8.53;;;4.80;;
34134;SDS011;20410;55.578;12.968;2023-04-30T04:03:48;13.07;;;4.43;;
34134;SDS011;20410;55.578;12.968;2023-04-30T04:06:14;12.23;;;4.70;;
34134;SDS011;20410;55.578;12.968;2023-04-30T04:08:40;8.07;;;3.70;;
34134;SDS011;20410;55.578;12.968;2023-04-30T04:11:07;10.90;;;4.53;;
34134;SDS011;20410;55.578;12.968;2023-04-30T04:13:34;10.30;;;4.73;;
34134;SDS011;20410;55.578;12.968;2023-04-30T04:15:59;11.17;;;4.60;;
34134;SDS011;20410;55.578;12.968;2023-04-30T04:18:25;13.10;;;4.53;;
34134;SDS011;20410;55.578;12.968;2023-04-30T04:20:50;11.27;;;4.50;;
34134;SDS011;20410;55.578;12.968;2023-04-30T04:23:16;13.57;;;4.57;;
34134;SDS011;20410;55.578;12.968;2023-04-30T04:25:41;13.93;;;4.47;;
34134;SDS011;20410;55.578;12.968;2023-04-30T04:28:08;11.93;;;4.73;;
34134;SDS011;20410;55.578;12.968;2023-04-30T04:30:34;11.23;;;4.23;;
34134;SDS011;20410;55.578;12.968;2023-04-30T04:33:00;13.13;;;4.20;;
34134;SDS011;20410;55.578;12.968;2023-04-30T04:35:26;9.33;;;4.57;;
34134;SDS011;20410;55.578;12.968;2023-04-30T04:37:51;13.67;;;4.60;;
34134;SDS011;20410;55.578;12.968;2023-04-30T04:40:17;11.30;;;4.17;;
34134;SDS011;20410;55.578;12.968;2023-04-30T04:42:43;10.67;;;4.53;;
34134;SDS011;20410;55.578;12.968;2023-04-30T04:45:08;12.30;;;4.37;;
34134;SDS011;20410;55.578;12.968;2023-04-30T04:47:35;13.77;;;4.27;;
34134;SDS011;20410;55.578;12.968;2023-04-30T04:50:01;12.43;;;4.37;;
34134;SDS011;20410;55.578;12.968;2023-04-30T04:52:27;13.23;;;4.63;;
34134;SDS011;20410;55.578;12.968;2023-04-30T04:54:53;13.50;;;4.73;;
34134;SDS011;20410;55.578;12.968;2023-04-30T04:57:18;10.83;;;4.13;;
34134;SDS011;20410;55.578;12.968;2023-04-30T04:59:44;11.97;;;5.13;;
34134;SDS011;20410;55.578;12.968;2023-04-30T05:02:09;9.47;;;4.27;;
34134;SDS011;20410;55.578;12.968;2023-04-30T05:04:35;11.50;;;4.27;;
34134;SDS011;20410;55.578;12.968;2023-04-30T05:07:00;11.87;;;4.10;;
34134;SDS011;20410;55.578;12.968;2023-04-30T05:09:27;15.33;;;5.07;;
34134;SDS011;20410;55.578;12.968;2023-04-30T05:11:52;11.73;;;3.83;;
34134;SDS011;20410;55.578;12.968;2023-04-30T05:14:18;10.77;;;4.37;;
34134;SDS011;20410;55.578;12.968;2023-04-30T05:16:44;8.63;;;4.07;;
34134;SDS011;20410;55.578;12.968;2023-04-30T05:19:10;8.57;;;3.70;;
34134;SDS011;20410;55.578;12.968;2023-04-30T05:21:36;11.97;;;4.17;;
34134;SDS011;20410;55.578;12.968;2023-04-30T05:24:01;11.10;;;4.20;;
34134;SDS011;20410;55.578;12.968;2023-04-30T05:26:27;10.43;;;4.00;;
34134;SDS011;20410;55.578;12.968;2023-04-30T05:28:53;13.80;;;4.53;;
34134;SDS011;20410;55.578;12.968;2023-04-30T05:31:18;9.00;;;3.63;;
34134;SDS011;20410;55.578;12.968;2023-04-30T05:33:44;7.57;;;3.53;;
34134;SDS011;20410;55.578;12.968;2023-04-30T05:36:10;6.23;;;3.27;;
34134;SDS011;20410;55.578;12.968;2023-04-30T05:38:36;13.97;;;4.07;;
34134;SDS011;20410;55.578;12.968;2023-04-30T05:41:01;7.93;;;4.00;;
34134;SDS011;20410;55.578;12.968;2023-04-30T05:43:27;9.77;;;3.67;;
34134;SDS011;20410;55.578;12.968;2023-04-30T05:45:52;8.30;;;4.07;;
34134;SDS011;20410;55.578;12.968;2023-04-30T05:48:18;8.90;;;3.43;;
34134;SDS011;20410;55.578;12.968;2023-04-30T05:50:43;10.30;;;4.03;;
34134;SDS011;20410;55.578;12.968;2023-04-30T05:53:09;9.00;;;3.20;;
34134;SDS011;20410;55.578;12.968;2023-04-30T05:55:35;6.87;;;3.43;;
34134;SDS011;20410;55.578;12.968;2023-04-30T05:58:00;11.90;;;3.50;;
34134;SDS011;20410;55.578;12.968;2023-04-30T06:00:26;7.23;;;3.60;;
34134;SDS011;20410;55.578;12.968;2023-04-30T06:02:52;9.40;;;3.30;;
34134;SDS011;20410;55.578;12.968;2023-04-30T06:05:17;7.83;;;4.00;;
34134;SDS011;20410;55.578;12.968;2023-04-30T06:07:43;6.50;;;3.63;;
34134;SDS011;20410;55.578;12.968;2023-04-30T06:10:09;7.63;;;3.43;;
34134;SDS011;20410;55.578;12.968;2023-04-30T06:12:35;9.27;;;3.97;;
34134;SDS011;20410;55.578;12.968;2023-04-30T06:15:01;10.07;;;4.00;;
34134;SDS011;20410;55.578;12.968;2023-04-30T06:17:27;11.50;;;3.87;;
34134;SDS011;20410;55.578;12.968;2023-04-30T06:19:52;9.43;;;3.77;;
34134;SDS011;20410;55.578;12.968;2023-04-30T06:22:18;9.13;;;4.03;;
34134;SDS011;20410;55.578;12.968;2023-04-30T06:24:44;8.53;;;3.90;;
34134;SDS011;20410;55.578;12.968;2023-04-30T06:27:10;10.97;;;4.13;;
34134;SDS011;20410;55.578;12.968;2023-04-30T06:29:35;7.47;;;3.37;;
34134;SDS011;20410;55.578;12.968;2023-04-30T06:32:01;7.77;;;3.53;;
34134;SDS011;20410;55.578;12.968;2023-04-30T06:34:26;6.90;;;3.30;;
34134;SDS011;20410;55.578;12.968;2023-04-30T06:36:52;7.80;;;3.63;;
34134;SDS011;20410;55.578;12.968;2023-04-30T06:39:18;7.50;;;3.13;;
34134;SDS011;20410;55.578;12.968;2023-04-30T06:41:43;8.13;;;2.87;;
34134;SDS011;20410;55.578;12.968;2023-04-30T06:44:11;5.80;;;3.33;;
34134;SDS011;20410;55.578;12.968;2023-04-30T06:46:37;5.47;;;3.00;;
34134;SDS011;20410;55.578;12.968;2023-04-30T06:49:02;7.37;;;3.43;;
34134;SDS011;20410;55.578;12.968;2023-04-30T06:51:28;6.07;;;3.50;;
34134;SDS011;20410;55.578;12.968;2023-04-30T06:53:53;5.20;;;2.90;;
34134;SDS011;20410;55.578;12.968;2023-04-30T06:56:20;5.70;;;3.30;;
34134;SDS011;20410;55.578;12.968;2023-04-30T06:58:46;6.10;;;2.87;;
34134;SDS011;20410;55.578;12.968;2023-04-30T07:01:11;7.03;;;2.40;;
34134;SDS011;20410;55.578;12.968;2023-04-30T07:03:37;7.63;;;3.00;;
34134;SDS011;20410;55.578;12.968;2023-04-30T07:06:03;7.63;;;3.33;;
34134;SDS011;20410;55.578;12.968;2023-04-30T07:08:29;7.70;;;2.50;;
34134;SDS011;20410;55.578;12.968;2023-04-30T07:10:54;5.07;;;3.07;;
34134;SDS011;20410;55.578;12.968;2023-04-30T07:13:20;6.60;;;3.37;;
34134;SDS011;20410;55.578;12.968;2023-04-30T07:15:46;5.30;;;2.80;;
34134;SDS011;20410;55.578;12.968;2023-04-30T07:18:11;4.23;;;3.00;;
34134;SDS011;20410;55.578;12.968;2023-04-30T07:20:37;5.17;;;3.10;;
34134;SDS011;20410;55.578;12.968;2023-04-30T07:23:03;7.87;;;3.13;;
34134;SDS011;20410;55.578;12.968;2023-04-30T07:25:29;7.73;;;3.10;;
34134;SDS011;20410;55.578;12.968;2023-04-30T07:27:54;7.03;;;3.27;;
34134;SDS011;20410;55.578;12.968;2023-04-30T07:30:20;6.93;;;3.43;;
34134;SDS011;20410;55.578;12.968;2023-04-30T07:32:46;3.80;;;2.93;;
34134;SDS011;20410;55.578;12.968;2023-04-30T07:35:12;8.03;;;3.43;;
34134;SDS011;20410;55.578;12.968;2023-04-30T07:37:38;6.53;;;3.47;;
34134;SDS011;20410;55.578;12.968;2023-04-30T07:40:04;5.33;;;3.33;;
34134;SDS011;20410;55.578;12.968;2023-04-30T07:42:33;8.10;;;3.53;;
34134;SDS011;20410;55.578;12.968;2023-04-30T07:44:58;5.97;;;3.33;;
34134;SDS011;20410;55.578;12.968;2023-04-30T07:47:25;5.20;;;2.90;;
34134;SDS011;20410;55.578;12.968;2023-04-30T07:49:51;5.23;;;2.80;;
34134;SDS011;20410;55.578;12.968;2023-04-30T07:52:16;8.93;;;3.93;;
34134;SDS011;20410;55.578;12.968;2023-04-30T07:54:42;8.03;;;3.47;;
34134;SDS011;20410;55.578;12.968;2023-04-30T07:57:08;6.43;;;3.73;;
34134;SDS011;20410;55.578;12.968;2023-04-30T07:59:33;5.33;;;3.00;;
34134;SDS011;20410;55.578;12.968;2023-04-30T08:01:59;5.80;;;2.70;;
34134;SDS011;20410;55.578;12.968;2023-04-30T08:04:25;5.23;;;2.70;;
34134;SDS011;20410;55.578;12.968;2023-04-30T08:06:51;6.80;;;3.00;;
34134;SDS011;20410;55.578;12.968;2023-04-30T08:09:16;4.07;;;2.77;;
34134;SDS011;20410;55.578;12.968;2023-04-30T08:11:42;5.23;;;2.93;;
34134;SDS011;20410;55.578;12.968;2023-04-30T08:14:07;6.60;;;3.40;;
34134;SDS011;20410;55.578;12.968;2023-04-30T08:16:33;5.97;;;2.80;;
34134;SDS011;20410;55.578;12.968;2023-04-30T08:18:59;7.17;;;3.03;;
34134;SDS011;20410;55.578;12.968;2023-04-30T08:21:25;5.87;;;3.57;;
34134;SDS011;20410;55.578;12.968;2023-04-30T08:23:52;6.67;;;3.53;;
34134;SDS011;20410;55.578;12.968;2023-04-30T08:26:18;5.13;;;3.20;;
34134;SDS011;20410;55.578;12.968;2023-04-30T08:28:44;6.10;;;3.07;;
34134;SDS011;20410;55.578;12.968;2023-04-30T08:31:11;4.80;;;2.60;;
34134;SDS011;20410;55.578;12.968;2023-04-30T08:33:37;7.07;;;2.87;;
34134;SDS011;20410;55.578;12.968;2023-04-30T08:36:02;8.43;;;2.83;;
34134;SDS011;20410;55.578;12.968;2023-04-30T08:38:28;6.03;;;2.80;;
34134;SDS011;20410;55.578;12.968;2023-04-30T08:41:12;6.67;;;3.10;;
34134;SDS011;20410;55.578;12.968;2023-04-30T08:43:39;3.60;;;2.73;;
34134;SDS011;20410;55.578;12.968;2023-04-30T08:46:06;7.37;;;2.90;;
34134;SDS011;20410;55.578;12.968;2023-04-30T08:48:32;5.77;;;3.60;;
34134;SDS011;20410;55.578;12.968;2023-04-30T08:50:58;4.37;;;2.90;;
34134;SDS011;20410;55.578;12.968;2023-04-30T08:53:28;4.40;;;2.83;;
34134;SDS011;20410;55.578;12.968;2023-04-30T08:55:55;5.30;;;2.77;;
34134;SDS011;20410;55.578;12.968;2023-04-30T08:58:21;6.77;;;3.30;;
34134;SDS011;20410;55.578;12.968;2023-04-30T09:00:47;4.57;;;2.60;;
34134;SDS011;20410;55.578;12.968;2023-04-30T09:03:12;5.30;;;2.80;;
34134;SDS011;20410;55.578;12.968;2023-04-30T09:05:38;4.77;;;2.93;;
34134;SDS011;20410;55.578;12.968;2023-04-30T09:08:05;4.13;;;2.20;;
34134;SDS011;20410;55.578;12.968;2023-04-30T09:10:32;4.20;;;2.37;;
34134;SDS011;20410;55.578;12.968;2023-04-30T09:13:05;5.13;;;4.17;;
34134;SDS011;20410;55.578;12.968;2023-04-30T09:15:33;4.10;;;2.47;;
34134;SDS011;20410;55.578;12.968;2023-04-30T09:18:09;6.80;;;2.67;;
34134;SDS011;20410;55.578;12.968;2023-04-30T09:23:27;4.77;;;2.57;;
34134;SDS011;20410;55.578;12.968;2023-04-30T09:25:53;5.60;;;2.67;;
34134;SDS011;20410;55.578;12.968;2023-04-30T09:28:20;4.73;;;2.40;;
34134;SDS011;20410;55.578;12.968;2023-04-30T09:30:51;5.07;;;2.53;;
34134;SDS011;20410;55.578;12.968;2023-04-30T09:33:17;6.17;;;2.47;;
34134;SDS011;20410;55.578;12.968;2023-04-30T09:35:43;6.23;;;2.80;;
34134;SDS011;20410;55.578;12.968;2023-04-30T09:38:51;4.20;;;2.60;;
34134;SDS011;20410;55.578;12.968;2023-04-30T09:40:58;3.90;;;2.50;;
34134;SDS011;20410;55.578;12.968;2023-04-30T09:43:25;5.70;;;2.40;;
34134;SDS011;20410;55.578;12.968;2023-04-30T09:45:52;4.67;;;2.20;;
34134;SDS011;20410;55.578;12.968;2023-04-30T09:48:20;6.23;;;2.50;;
34134;SDS011;20410;55.578;12.968;2023-04-30T09:50:47;5.90;;;2.70;;
34134;SDS011;20410;55.578;12.968;2023-04-30T09:53:13;4.67;;;2.50;;
34134;SDS011;20410;55.578;12.968;2023-04-30T09:55:42;4.17;;;2.50;;
34134;SDS011;20410;55.578;12.968;2023-04-30T09:58:10;4.47;;;2.33;;
34134;SDS011;20410;55.578;12.968;2023-04-30T10:00:37;4.53;;;2.50;;
34134;SDS011;20410;55.578;12.968;2023-04-30T10:03:13;3.27;;;2.67;;
34134;SDS011;20410;55.578;12.968;2023-04-30T10:08:06;4.50;;;2.50;;
34134;SDS011;20410;55.578;12.968;2023-04-30T10:10:49;5.03;;;2.33;;
34134;SDS011;20410;55.578;12.968;2023-04-30T10:13:17;5.50;;;2.77;;
34134;SDS011;20410;55.578;12.968;2023-04-30T10:15:47;6.33;;;2.60;;
34134;SDS011;20410;55.578;12.968;2023-04-30T10:20:47;6.83;;;3.10;;
34134;SDS011;20410;55.578;12.968;2023-04-30T10:23:14;5.87;;;3.03;;
34134;SDS011;20410;55.578;12.968;2023-04-30T10:25:41;4.77;;;2.63;;
34134;SDS011;20410;55.578;12.968;2023-04-30T10:28:08;5.73;;;2.83;;
34134;SDS011;20410;55.578;12.968;2023-04-30T10:30:35;7.00;;;2.90;;
34134;SDS011;20410;55.578;12.968;2023-04-30T10:35:50;4.83;;;2.73;;
34134;SDS011;20410;55.578;12.968;2023-04-30T10:38:29;6.47;;;3.20;;
34134;SDS011;20410;55.578;12.968;2023-04-30T10:40:56;6.00;;;2.67;;
34134;SDS011;20410;55.578;12.968;2023-04-30T10:43:25;6.30;;;2.67;;
34134;SDS011;20410;55.578;12.968;2023-04-30T10:45:53;4.30;;;2.50;;
34134;SDS011;20410;55.578;12.968;2023-04-30T10:48:22;5.07;;;2.80;;
34134;SDS011;20410;55.578;12.968;2023-04-30T10:50:59;6.93;;;3.13;;
34134;SDS011;20410;55.578;12.968;2023-04-30T10:53:25;4.67;;;2.87;;
34134;SDS011;20410;55.578;12.968;2023-04-30T11:01:00;7.63;;;2.93;;
34134;SDS011;20410;55.578;12.968;2023-04-30T11:03:36;7.80;;;2.83;;
34134;SDS011;20410;55.578;12.968;2023-04-30T11:06:15;3.93;;;2.50;;
34134;SDS011;20410;55.578;12.968;2023-04-30T11:08:44;6.23;;;2.80;;
34134;SDS011;20410;55.578;12.968;2023-04-30T11:11:11;6.30;;;2.70;;
34134;SDS011;20410;55.578;12.968;2023-04-30T11:13:44;5.83;;;2.77;;
34134;SDS011;20410;55.578;12.968;2023-04-30T11:16:11;6.90;;;2.90;;
34134;SDS011;20410;55.578;12.968;2023-04-30T11:18:40;6.03;;;2.90;;
34134;SDS011;20410;55.578;12.968;2023-04-30T11:21:08;3.73;;;2.50;;
34134;SDS011;20410;55.578;12.968;2023-04-30T11:23:34;7.53;;;3.27;;
34134;SDS011;20410;55.578;12.968;2023-04-30T11:26:00;8.90;;;3.23;;
34134;SDS011;20410;55.578;12.968;2023-04-30T11:28:26;4.97;;;2.90;;
34134;SDS011;20410;55.578;12.968;2023-04-30T11:30:53;3.87;;;2.83;;
34134;SDS011;20410;55.578;12.968;2023-04-30T11:33:24;5.63;;;3.03;;
34134;SDS011;20410;55.578;12.968;2023-04-30T11:35:54;9.97;;;3.67;;
34134;SDS011;20410;55.578;12.968;2023-04-30T11:38:22;7.93;;;2.77;;
34134;SDS011;20410;55.578;12.968;2023-04-30T11:40:51;6.43;;;2.83;;
34134;SDS011;20410;55.578;12.968;2023-04-30T11:43:24;5.57;;;2.67;;
34134;SDS011;20410;55.578;12.968;2023-04-30T11:46:03;5.53;;;2.67;;
34134;SDS011;20410;55.578;12.968;2023-04-30T11:48:36;6.80;;;3.20;;
34134;SDS011;20410;55.578;12.968;2023-04-30T11:51:04;7.50;;;3.37;;
34134;SDS011;20410;55.578;12.968;2023-04-30T11:53:38;6.87;;;3.03;;
34134;SDS011;20410;55.578;12.968;2023-04-30T11:56:03;6.33;;;3.13;;
34134;SDS011;20410;55.578;12.968;2023-04-30T11:58:34;8.43;;;3.03;;
34134;SDS011;20410;55.578;12.968;2023-04-30T12:01:02;6.40;;;3.03;;
34134;SDS011;20410;55.578;12.968;2023-04-30T12:03:29;6.93;;;3.07;;
34134;SDS011;20410;55.578;12.968;2023-04-30T12:05:55;6.70;;;2.90;;
34134;SDS011;20410;55.578;12.968;2023-04-30T12:08:21;6.20;;;2.97;;
34134;SDS011;20410;55.578;12.968;2023-04-30T12:10:47;6.70;;;2.63;;
34134;SDS011;20410;55.578;12.968;2023-04-30T12:13:13;5.87;;;2.90;;
34134;SDS011;20410;55.578;12.968;2023-04-30T12:15:40;3.70;;;2.40;;
34134;SDS011;20410;55.578;12.968;2023-04-30T12:18:10;7.43;;;2.70;;
34134;SDS011;20410;55.578;12.968;2023-04-30T12:20:37;6.20;;;2.67;;
34134;SDS011;20410;55.578;12.968;2023-04-30T12:23:04;7.03;;;2.20;;
34134;SDS011;20410;55.578;12.968;2023-04-30T12:25:30;4.87;;;2.63;;
34134;SDS011;20410;55.578;12.968;2023-04-30T12:28:03;4.10;;;2.20;;
34134;SDS011;20410;55.578;12.968;2023-04-30T12:30:29;4.07;;;2.40;;
34134;SDS011;20410;55.578;12.968;2023-04-30T12:32:56;6.87;;;2.70;;
34134;SDS011;20410;55.578;12.968;2023-04-30T12:35:23;5.33;;;2.70;;
34134;SDS011;20410;55.578;12.968;2023-04-30T12:37:52;8.40;;;2.50;;
34134;SDS011;20410;55.578;12.968;2023-04-30T12:40:25;9.93;;;2.80;;
34134;SDS011;20410;55.578;12.968;2023-04-30T12:42:58;6.93;;;2.57;;
34134;SDS011;20410;55.578;12.968;2023-04-30T12:48:13;7.23;;;2.73;;
34134;SDS011;20410;55.578;12.968;2023-04-30T12:50:40;5.67;;;2.43;;
34134;SDS011;20410;55.578;12.968;2023-04-30T12:53:07;4.80;;;2.87;;
34134;SDS011;20410;55.578;12.968;2023-04-30T12:55:33;5.73;;;2.57;;
34134;SDS011;20410;55.578;12.968;2023-04-30T12:58:06;7.47;;;2.77;;
34134;SDS011;20410;55.578;12.968;2023-04-30T13:00:46;5.37;;;2.33;;
34134;SDS011;20410;55.578;12.968;2023-04-30T13:03:14;4.07;;;3.03;;
34134;SDS011;20410;55.578;12.968;2023-04-30T13:05:42;8.37;;;3.00;;
34134;SDS011;20410;55.578;12.968;2023-04-30T13:08:19;7.60;;;3.40;;
34134;SDS011;20410;55.578;12.968;2023-04-30T13:10:45;6.50;;;2.67;;
34134;SDS011;20410;55.578;12.968;2023-04-30T13:13:13;3.37;;;2.33;;
34134;SDS011;20410;55.578;12.968;2023-04-30T13:15:41;5.13;;;2.37;;
34134;SDS011;20410;55.578;12.968;2023-04-30T13:18:07;5.97;;;2.10;;
34134;SDS011;20410;55.578;12.968;2023-04-30T13:20:33;7.27;;;2.77;;
34134;SDS011;20410;55.578;12.968;2023-04-30T13:22:59;8.60;;;2.83;;
34134;SDS011;20410;55.578;12.968;2023-04-30T13:25:25;4.77;;;2.40;;
34134;SDS011;20410;55.578;12.968;2023-04-30T13:27:51;6.70;;;2.50;;
34134;SDS011;20410;55.578;12.968;2023-04-30T13:30:17;6.27;;;2.40;;
34134;SDS011;20410;55.578;12.968;2023-04-30T13:32:42;4.80;;;2.43;;
34134;SDS011;20410;55.578;12.968;2023-04-30T13:35:09;5.33;;;2.30;;
34134;SDS011;20410;55.578;12.968;2023-04-30T13:37:36;5.70;;;3.03;;
34134;SDS011;20410;55.578;12.968;2023-04-30T13:40:02;5.57;;;2.63;;
34134;SDS011;20410;55.578;12.968;2023-04-30T13:42:30;8.87;;;2.93;;
34134;SDS011;20410;55.578;12.968;2023-04-30T13:44:55;9.73;;;3.50;;
34134;SDS011;20410;55.578;12.968;2023-04-30T13:47:21;5.07;;;2.70;;
34134;SDS011;20410;55.578;12.968;2023-04-30T13:49:47;6.20;;;2.87;;
34134;SDS011;20410;55.578;12.968;2023-04-30T13:52:12;8.57;;;2.77;;
34134;SDS011;20410;55.578;12.968;2023-04-30T13:54:38;6.53;;;2.57;;
34134;SDS011;20410;55.578;12.968;2023-04-30T13:57:05;6.13;;;2.87;;
34134;SDS011;20410;55.578;12.968;2023-04-30T13:59:31;6.17;;;2.53;;
34134;SDS011;20410;55.578;12.968;2023-04-30T14:01:57;5.90;;;2.60;;
34134;SDS011;20410;55.578;12.968;2023-04-30T14:04:22;6.47;;;3.20;;
34134;SDS011;20410;55.578;12.968;2023-04-30T14:06:48;4.43;;;2.50;;
34134;SDS011;20410;55.578;12.968;2023-04-30T14:09:15;7.27;;;3.00;;
34134;SDS011;20410;55.578;12.968;2023-04-30T14:11:41;4.93;;;2.90;;
34134;SDS011;20410;55.578;12.968;2023-04-30T14:14:07;6.33;;;2.63;;
34134;SDS011;20410;55.578;12.968;2023-04-30T14:16:33;6.50;;;2.97;;
34134;SDS011;20410;55.578;12.968;2023-04-30T14:18:59;8.17;;;2.83;;
34134;SDS011;20410;55.578;12.968;2023-04-30T14:21:24;6.00;;;3.00;;
34134;SDS011;20410;55.578;12.968;2023-04-30T14:23:51;5.80;;;2.90;;
34134;SDS011;20410;55.578;12.968;2023-04-30T14:26:17;5.07;;;2.97;;
34134;SDS011;20410;55.578;12.968;2023-04-30T14:28:42;6.30;;;2.63;;
34134;SDS011;20410;55.578;12.968;2023-04-30T14:31:08;4.70;;;2.67;;
34134;SDS011;20410;55.578;12.968;2023-04-30T14:33:34;4.73;;;2.80;;
34134;SDS011;20410;55.578;12.968;2023-04-30T14:36:00;7.87;;;3.47;;
34134;SDS011;20410;55.578;12.968;2023-04-30T14:38:25;6.27;;;2.33;;
34134;SDS011;20410;55.578;12.968;2023-04-30T14:40:51;6.43;;;2.43;;
34134;SDS011;20410;55.578;12.968;2023-04-30T14:43:17;5.30;;;2.57;;
34134;SDS011;20410;55.578;12.968;2023-04-30T14:45:43;5.53;;;2.67;;
34134;SDS011;20410;55.578;12.968;2023-04-30T14:48:10;6.70;;;2.60;;
34134;SDS011;20410;55.578;12.968;2023-04-30T14:50:35;4.90;;;2.17;;
34134;SDS011;20410;55.578;12.968;2023-04-30T14:53:01;3.20;;;1.97;;
34134;SDS011;20410;55.578;12.968;2023-04-30T14:55:30;4.47;;;2.70;;
34134;SDS011;20410;55.578;12.968;2023-04-30T14:57:57;5.60;;;2.87;;
34134;SDS011;20410;55.578;12.968;2023-04-30T15:00:23;4.97;;;2.37;;
34134;SDS011;20410;55.578;12.968;2023-04-30T15:02:49;5.73;;;2.40;;